Latest Weather Observations for Mangalore

IDV60801

Issued at 5:05 pm EDT Friday 31 October 2014 (issued every 30 minutes, with the page automatically refreshed every 10 minutes)

About weather observations | Map of weather stations | Latest weather observations for VIC | Other Formats
Station Details ID: 088109 Name: MANGALORE AIRPORT Lat: -36.89 Lon: 145.19 Height: 140.8 m
Data from the previous 72 hours. | See also: Recent months at Mangalore
Date/Time
EDT
Temp
°C
App
Temp
°C
Dew
Point
Rel
Hum
%
Delta-T
°C
Wind Press
QNH
hPa
Press
MSL
hPa
Rain
since 9 am
mm
Dir
 
Spd
km/h
Gust
km/h
Spd
kts
Gust
kts
31/05:00pm 32.3 25.4 2.4 15 15.3 N 28 39 15 21 1002.2 1002.1 0.0
31/04:30pm 32.6 25.9 3.5 16 15.1 N 28 41 15 22 1002.7 1002.6 0.0
31/04:00pm 31.9 25.6 3.8 17 14.6 N 26 35 14 19 1003.2 1003.1 0.0
31/03:30pm 32.1 27.1 4.8 18 14.4 N 20 35 11 19 1003.7 1003.7 0.0
31/03:00pm 29.6 23.4 4.3 20 13.1 N 26 35 14 19 1004.7 1004.6 0.0
31/02:30pm 28.5 24.0 4.1 21 12.5 N 17 28 9 15 1005.4 1005.3 0.0
31/02:00pm 30.6 25.4 3.6 18 13.9 NNW 20 32 11 17 1006.1 1006.0 0.0
31/01:30pm 28.5 23.1 2.7 19 12.9 N 20 30 11 16 1006.6 1006.5 0.0
31/01:00pm 27.8 22.7 2.8 20 12.5 N 19 28 10 15 1007.3 1007.2 0.0
31/12:30pm 28.7 23.2 4.2 21 12.6 N 22 35 12 19 1007.7 1007.6 0.0
31/12:00pm 27.2 22.4 4.9 24 11.5 N 19 26 10 14 1008.4 1008.3 0.0
31/11:30am 26.7 22.5 5.6 26 10.9 NNE 17 24 9 13 1009.0 1008.9 0.0
31/11:00am 24.9 21.5 6.1 30 9.7 NNE 13 19 7 10 1009.5 1009.4 0.0
31/10:30am 22.0 19.6 7.0 38 7.8 N 9 15 5 8 1010.3 1010.3 0.0
31/10:00am 20.3 17.9 7.0 42 6.8 N 9 13 5 7 1010.7 1010.7 0.0
31/09:30am 19.4 16.2 6.8 44 6.4 N 13 19 7 10 1010.9 1010.9 0.0
31/09:00am 16.7 14.9 9.6 63 3.7 S 9 13 5 7 1010.8 1010.8 0.0
31/08:30am 14.2 13.0 9.6 74 2.4 SSW 6 9 3 5 1011.0 1011.0 0.0
31/08:00am 11.5 11.4 9.6 88 1.0 CALM 0 0 0 0 1011.1 1011.1 0.0
31/07:30am 9.6 8.3 9.1 97 0.2 SSW 6 7 3 4 1011.4 1011.3 0.0
31/07:00am 8.3 6.1 8.0 98 0.1 SSW 9 11 5 6 1011.6 1011.5 0.0
31/06:30am 7.9 6.0 7.5 97 0.2 SSW 7 11 4 6 1011.4 1011.3 0.0
31/06:00am 8.1 6.2 7.5 96 0.3 SSW 7 11 4 6 1011.0 1011.0 0.0
31/05:30am 8.6 6.4 7.8 95 0.4 SSW 9 13 5 7 1010.7 1010.7 0.0
31/05:00am 9.0 6.5 8.1 94 0.4 SSW 11 15 6 8 1010.6 1010.6 0.0
31/04:30am 9.4 6.9 8.3 93 0.5 SSW 11 15 6 8 1010.7 1010.7 0.0
31/04:00am 9.9 7.1 8.7 92 0.6 SSW 13 19 7 10 1010.8 1010.8 0.0
31/03:30am 10.2 7.8 8.8 91 0.7 SSW 11 15 6 8 1010.9 1010.9 0.0
31/03:00am 10.4 7.7 8.8 90 0.8 SSW 13 19 7 10 1011.0 1011.0 0.0
31/02:30am 10.7 7.3 9.1 90 0.8 SSW 17 22 9 12 1011.1 1011.1 0.0
31/02:00am 10.9 8.3 9.2 89 0.9 SSW 13 17 7 9 1011.2 1011.2 0.0
31/01:30am 11.3 8.7 9.2 87 1.1 SSW 13 19 7 10 1011.8 1011.7 0.0
31/01:00am 11.8 9.2 9.2 84 1.3 SSW 13 17 7 9 1012.4 1012.3 0.0
31/12:30am 12.1 9.0 8.8 80 1.7 SSW 15 19 8 10 1012.7 1012.6 0.0
31/12:00am 12.8 9.6 8.5 75 2.2 SSW 15 22 8 12 1012.7 1012.6 0.0
 
Date/Time
EDT
Temp
°C
App
Temp
°C
Dew
Point
Rel
Hum
%
Delta-T
°C
Wind Press
QNH
hPa
Press
MSL
hPa
Rain
since 9 am
mm
Dir
 
Spd
km/h
Gust
km/h
Spd
kts
Gust
kts
30/11:30pm 13.8 10.5 8.2 69 2.8 SSW 15 20 8 11 1012.6 1012.5 0.0
30/11:00pm 14.8 11.8 7.8 63 3.5 SSW 13 22 7 12 1012.4 1012.3 0.0
30/10:30pm 16.0 13.1 8.2 60 4.0 SSW 13 19 7 10 1012.6 1012.5 0.0
30/10:00pm 16.6 14.2 8.8 60 4.0 SW 11 15 6 8 1012.3 1012.2 0.0
30/09:30pm 18.3 15.6 8.8 54 5.0 SSW 13 17 7 9 1012.1 1012.0 0.0
30/09:00pm 18.5 16.4 8.2 51 5.3 SSW 9 13 5 7 1011.7 1011.6 0.0
30/08:30pm 20.4 17.8 7.7 44 6.6 SSW 11 13 6 7 1011.6 1011.5 0.0
30/08:00pm 22.0 18.6 5.8 35 8.2 SW 13 17 7 9 1011.4 1011.3 0.0
30/07:30pm 23.6 20.8 5.0 30 9.4 WSW 9 11 5 6 1011.2 1011.2 0.0
30/07:00pm 26.1 23.6 4.6 25 10.9 WSW 7 9 4 5 1011.0 1011.0 0.0
30/06:30pm 26.5 23.5 4.3 24 11.2 WSW 9 13 5 7 1011.1 1011.1 0.0
30/06:00pm 26.6 22.3 3.2 22 11.6 W 15 24 8 13 1011.2 1011.2 0.0
30/05:30pm 27.1 22.1 3.6 22 11.8 W 19 24 10 13 1011.2 1011.2 0.0
30/05:00pm 27.8 23.8 2.8 20 12.4 WNW 13 24 7 13 1011.2 1011.2 0.0
30/04:30pm 27.0 21.7 2.8 21 12.0 NW 20 28 11 15 1011.2 1011.2 0.0
30/04:00pm 27.8 22.7 2.8 20 12.4 WNW 19 30 10 16 1011.4 1011.3 0.0
30/03:30pm 25.7 23.3 5.3 27 10.5 WNW 7 15 4 8 1011.5 1011.4 0.0
30/03:00pm 26.2 22.1 6.3 28 10.4 WNW 17 26 9 14 1012.1 1012.0 0.0
30/02:30pm 26.2 23.2 7.7 31 9.9 NNW 13 24 7 13 1012.7 1012.6 0.0
30/02:00pm 25.4 22.1 6.6 30 9.8 WNW 13 20 7 11 1013.1 1013.0 0.0
30/01:30pm 24.1 21.2 6.4 32 9.2 WNW 11 17 6 9 1013.3 1013.2 0.0
30/01:00pm 24.5 22.0 6.7 32 9.3 NNW 9 17 5 9 1013.8 1013.7 0.0
30/12:30pm 23.0 20.8 7.9 38 8.0 WNW 9 13 5 7 1014.1 1014.0 0.0
30/12:00pm 22.0 19.9 8.2 41 7.3 WNW 9 19 5 10 1014.5 1014.4 0.0
30/11:30am 21.3 19.0 8.9 45 6.6 WNW 11 17 6 9 1014.8 1014.7 0.0
30/11:00am 20.1 18.3 7.8 45 6.4 S 7 11 4 6 1014.9 1014.8 0.0
30/10:30am 19.8 18.2 8.8 49 5.8 S 7 9 4 5 1015.3 1015.2 0.0
30/10:00am 18.1 16.4 8.4 53 5.0 S 7 9 4 5 1015.6 1015.5 0.0
30/09:30am 16.7 14.6 9.6 63 3.7 SSW 11 17 6 9 1015.8 1015.8 0.0
30/09:00am 14.9 11.3 9.7 71 2.7 SSW 19 24 10 13 1015.9 1015.9 0.0
30/08:30am 13.0 10.0 9.4 79 1.8 SSW 15 20 8 11 1015.5 1015.4 0.0
30/08:00am 11.6 9.2 10.0 90 0.8 SSW 13 19 7 10 1015.3 1015.2 0.0
30/07:30am 9.9 7.7 9.4 97 0.3 SSW 11 15 6 8 1014.8 1014.7 0.0
30/07:00am 9.2 7.3 8.9 98 0.1 S 9 13 5 7 1014.4 1014.3 0.0
30/06:30am 8.9 6.1 8.5 97 0.2 SSW 13 15 7 8 1014.9 1014.8 0.0
30/06:15am 8.8 6.3 8.2 96 0.3 SSW 11 15 6 8 1014.7 1014.6 0.0
30/06:00am 8.3 6.6 7.4 94 0.4 SSW 6 11 3 6 1014.4 1014.3 0.0
30/05:56am 7.6 5.5 6.5 93 0.5 SSW 7 11 4 6 1014.3 1014.2 0.0
30/05:30am 8.6 6.7 7.5 93 0.5 SSW 7 11 4 6 1014.1 1014.0 0.0
30/05:00am 9.7 7.7 8.5 92 0.6 SSW 9 13 5 7 1014.0 1013.9 0.0
30/04:30am 10.0 7.2 8.6 91 0.7 SSW 13 15 7 8 1014.1 1014.0 0.0
30/04:00am 10.2 8.2 8.5 89 0.8 SSW 9 13 5 7 1014.2 1014.1 0.0
30/03:30am 10.7 8.3 8.6 87 1.0 SSW 11 15 6 8 1014.3 1014.2 0.0
30/03:00am 11.0 8.2 8.6 85 1.2 SSW 13 17 7 9 1014.3 1014.2 0.0
30/02:30am 11.3 8.1 8.5 83 1.4 SSW 15 19 8 10 1014.7 1014.6 0.0
30/02:00am 11.7 8.9 8.6 81 1.5 SSW 13 19 7 10 1014.8 1014.7 0.0
30/01:30am 11.9 9.1 8.6 80 1.6 SSW 13 17 7 9 1015.0 1014.9 0.0
30/01:00am 12.2 9.8 8.5 78 1.8 S 11 15 6 8 1015.1 1015.0 0.0
30/12:30am 12.6 9.8 8.7 77 2.0 SSW 13 19 7 10 1015.2 1015.1 0.0
30/12:00am 12.8 10.0 8.5 75 2.2 SSW 13 15 7 8 1015.1 1015.0 0.0
 
Date/Time
EDT
Temp
°C
App
Temp
°C
Dew
Point
Rel
Hum
%
Delta-T
°C
Wind Press
QNH
hPa
Press
MSL
hPa
Rain
since 9 am
mm
Dir
 
Spd
km/h
Gust
km/h
Spd
kts
Gust
kts
29/11:30pm 13.1 10.6 8.4 73 2.4 SSW 11 15 6 8 1015.1 1015.0 0.0
29/11:00pm 13.7 11.6 8.3 70 2.7 SSW 9 15 5 8 1015.1 1015.0 0.0
29/10:30pm 14.5 11.1 7.8 64 3.3 SW 15 19 8 10 1015.3 1015.2 0.0
29/10:00pm 11.8 9.8 6.9 72 2.4 NW 7 9 4 5 1015.0 1014.9 0.0
29/09:30pm 12.3 10.3 7.2 71 2.5 NW 7 9 4 5 1015.1 1015.0 0.0
29/09:00pm 14.3 12.4 7.6 64 3.3 NW 7 9 4 5 1014.9 1014.8 0.0
29/08:30pm 15.3 13.4 7.6 60 3.9 NW 7 7 4 4 1014.7 1014.6 0.0
29/08:00pm 17.4 15.4 7.2 51 5.1 NW 7 7 4 4 1014.6 1014.5 0.0
29/07:30pm 21.1 19.1 6.2 38 7.5 NW 6 7 3 4 1014.6 1014.5 0.0
29/07:00pm 22.8 20.1 5.7 33 8.7 WNW 9 13 5 7 1014.4 1014.3 0.0
29/06:30pm 23.4 19.9 5.3 31 9.1 WNW 13 17 7 9 1014.3 1014.2 0.0
29/06:00pm 23.5 20.0 5.4 31 9.2 NNW 13 19 7 10 1014.4 1014.3 0.0
29/05:30pm 23.4 19.7 4.4 29 9.4 W 13 24 7 13 1014.4 1014.3 0.0
29/05:00pm 23.3 19.3 4.8 30 9.3 W 15 24 8 13 1014.5 1014.4 0.0
29/04:30pm 23.1 20.9 5.1 31 9.0 W 6 13 3 7 1014.6 1014.5 0.0
29/04:00pm 22.3 20.0 5.7 34 8.4 WNW 7 15 4 8 1015.0 1014.9 0.0
29/03:30pm 22.2 19.1 5.6 34 8.4 NNW 11 19 6 10 1015.5 1015.4 0.0
29/03:00pm 22.0 18.6 5.8 35 8.2 WSW 13 28 7 15 1016.1 1016.1 0.0
29/02:30pm 21.1 17.3 5.9 37 7.7 WNW 15 22 8 12 1016.5 1016.5 0.0
29/02:29pm 20.9 17.0 5.3 36 7.8 WNW 15 22 8 12 1016.6 1016.6 0.0
29/02:06pm 21.3 17.6 6.4 38 7.6 W 15 24 8 13 1016.8 1016.8 0.0
29/02:00pm 21.0 17.6 5.8 37 7.6 WSW 13 22 7 12 1016.9 1016.9 0.0
29/01:30pm 19.9 16.5 5.9 40 7.0 WSW 13 22 7 12 1017.3 1017.3 0.0
29/01:00pm 19.3 16.7 6.1 42 6.6 WNW 9 17 5 9 1017.6 1017.6 0.0
29/12:30pm 18.4 15.8 6.3 45 6.0 WNW 9 15 5 8 1018.1 1018.1 0.0
29/12:00pm 16.5 13.7 5.2 47 5.4 W 9 15 5 8 1018.6 1018.6 0.0
29/11:30am 16.1 13.4 5.7 50 5.0 WSW 9 19 5 10 1019.1 1019.0 0.0
29/11:00am 15.4 11.9 5.6 52 4.7 SSW 13 20 7 11 1019.4 1019.3 0.0
29/10:30am 15.0 11.4 5.2 52 4.7 SSW 13 20 7 11 1019.6 1019.5 0.0
29/10:00am 14.1 10.5 4.9 54 4.3 S 13 19 7 10 1019.7 1019.6 0.0
29/09:30am 14.0 10.6 6.1 59 3.8 SSW 13 20 7 11 1019.7 1019.6 0.0
29/09:00am 13.1 9.5 6.7 65 3.1 SSW 15 20 8 11 1019.6 1019.5 0.0
29/08:30am 11.9 9.2 7.4 74 2.2 SSW 11 13 6 7 1019.6 1019.5 0.0
29/08:00am 10.1 7.7 6.8 80 1.6 S 9 13 5 7 1019.2 1019.1 0.0
29/07:30am 8.9 6.8 6.7 86 1.0 S 7 9 4 5 1019.1 1019.0 0.0
29/07:00am 6.4 4.0 5.4 93 0.4 S 7 7 4 4 1019.1 1019.0 0.0
29/06:30am 4.9 2.7 3.4 90 0.6 S 4 7 2 4 1018.5 1018.5 0.0
29/06:00am 5.2 2.6 3.2 87 0.8 S 6 9 3 5 1018.1 1018.1 0.0
29/05:30am 5.8 3.2 3.1 83 1.1 S 6 9 3 5 1017.8 1017.8 0.0
29/05:00am 7.7 4.8 4.5 80 1.4 S 9 11 5 6 1017.7 1017.7 0.0
29/04:30am 7.9 5.7 6.0 88 0.9 S 7 11 4 6 1017.4 1017.4 0.0
29/04:00am 5.8 3.7 3.8 87 0.8 S 4 6 2 3 1017.1 1017.1 0.0
29/03:30am 6.0 3.4 3.2 82 1.2 S 6 7 3 4 1017.1 1017.1 0.0
29/03:00am 6.8 4.3 3.9 82 1.2 S 6 7 3 4 1017.2 1017.2 0.0
29/02:30am 7.3 4.8 3.5 77 1.6 S 6 9 3 5 1017.1 1017.1 0.0
29/02:00am 8.7 6.1 4.3 74 1.9 S 7 9 4 5 1017.1 1017.1 0.0
29/01:30am 9.9 7.4 4.5 69 2.4 S 7 11 4 6 1017.3 1017.3 0.0
29/01:00am 10.5 7.9 4.4 66 2.7 S 7 9 4 5 1017.5 1017.5 0.0
29/12:30am 10.9 7.6 4.6 65 2.9 S 11 17 6 9 1017.5 1017.5 0.0
29/12:00am 11.8 7.4 4.8 62 3.2 S 17 20 9 11 1017.6 1017.6 0.0
 
Date/Time
EDT
Temp
°C
App
Temp
°C
Dew
Point
Rel
Hum
%
Delta-T
°C
Wind Press
QNH
hPa
Press
MSL
hPa
Rain
since 9 am
mm
Dir
 
Spd
km/h
Gust
km/h
Spd
kts
Gust
kts
28/11:30pm 11.8 8.3 5.4 65 3.0 S 13 17 7 9 1017.4 1017.4 0.0
28/11:00pm 12.3 8.2 6.4 67 2.8 SSW 17 20 9 11 1017.1 1017.1 0.0
28/10:30pm 13.0 8.7 6.8 66 3.0 S 19 28 10 15 1016.8 1016.8 0.0
28/10:00pm 13.6 9.5 8.0 69 2.8 SSW 19 28 10 15 1016.7 1016.7 0.0
28/09:30pm 14.0 10.3 8.0 67 3.0 S 17 24 9 13 1016.4 1016.4 0.0
28/09:00pm 14.8 10.4 7.6 62 3.6 SSW 20 30 11 16 1015.9 1015.9 0.0
28/08:30pm 16.1 12.4 6.5 53 4.7 SW 15 19 8 10 1015.3 1015.2 0.0
28/08:00pm 16.5 13.1 6.1 50 5.1 SSW 13 19 7 10 1014.8 1014.7 0.0
28/07:30pm 17.2 13.1 6.4 49 5.3 SW 17 24 9 13 1014.4 1014.3 0.0
28/07:00pm 18.1 13.7 6.6 47 5.8 SW 19 24 10 13 1013.9 1013.8 0.0
28/06:30pm 19.0 14.5 6.8 45 6.2 SW 20 26 11 14 1013.8 1013.7 0.0
28/06:00pm 19.0 14.7 7.1 46 6.0 SW 19 24 10 13 1013.8 1013.7 0.0
28/05:30pm 19.4 14.4 6.5 43 6.5 SW 22 28 12 15 1013.5 1013.4 0.0

Other Formats:

Comma delimited format used in spreadsheet applications
http://www.bom.gov.au/fwo/IDV60801/IDV60801.94874.axf

JavaScript Object Notation format (JSON) in row-major order
http://www.bom.gov.au/fwo/IDV60801/IDV60801.94874.json